sensor_id;sensor_type;location;lat;lon;timestamp;P1;durP1;ratioP1;P2;durP2;ratioP2
12302;SDS011;6214;48.012;7.862;2024-02-23T00:02:21;4.00;;;0.40;;
12302;SDS011;6214;48.012;7.862;2024-02-23T00:04:49;4.20;;;0.50;;
12302;SDS011;6214;48.012;7.862;2024-02-23T00:07:16;4.00;;;0.40;;
12302;SDS011;6214;48.012;7.862;2024-02-23T00:09:43;4.30;;;0.40;;
12302;SDS011;6214;48.012;7.862;2024-02-23T00:12:10;4.00;;;0.50;;
12302;SDS011;6214;48.012;7.862;2024-02-23T00:14:37;4.03;;;0.40;;
12302;SDS011;6214;48.012;7.862;2024-02-23T00:17:05;3.90;;;0.30;;
12302;SDS011;6214;48.012;7.862;2024-02-23T00:19:32;4.00;;;0.40;;
12302;SDS011;6214;48.012;7.862;2024-02-23T00:21:59;4.10;;;0.40;;
12302;SDS011;6214;48.012;7.862;2024-02-23T00:24:26;4.15;;;0.50;;
12302;SDS011;6214;48.012;7.862;2024-02-23T00:26:53;4.30;;;0.45;;
12302;SDS011;6214;48.012;7.862;2024-02-23T00:29:20;4.00;;;0.40;;
12302;SDS011;6214;48.012;7.862;2024-02-23T00:31:49;4.50;;;0.40;;
12302;SDS011;6214;48.012;7.862;2024-02-23T00:34:16;4.30;;;0.40;;
12302;SDS011;6214;48.012;7.862;2024-02-23T00:36:43;4.10;;;0.50;;
12302;SDS011;6214;48.012;7.862;2024-02-23T00:39:11;4.00;;;0.40;;
12302;SDS011;6214;48.012;7.862;2024-02-23T00:41:38;4.00;;;0.50;;
12302;SDS011;6214;48.012;7.862;2024-02-23T00:44:05;4.10;;;0.40;;
12302;SDS011;6214;48.012;7.862;2024-02-23T00:46:32;4.10;;;0.47;;
12302;SDS011;6214;48.012;7.862;2024-02-23T00:49:00;4.00;;;0.40;;
12302;SDS011;6214;48.012;7.862;2024-02-23T00:51:27;4.00;;;0.40;;
12302;SDS011;6214;48.012;7.862;2024-02-23T00:53:54;4.10;;;0.50;;
12302;SDS011;6214;48.012;7.862;2024-02-23T00:56:21;4.40;;;0.60;;
12302;SDS011;6214;48.012;7.862;2024-02-23T00:58:58;4.03;;;0.40;;
12302;SDS011;6214;48.012;7.862;2024-02-23T01:01:25;3.90;;;0.40;;
12302;SDS011;6214;48.012;7.862;2024-02-23T01:03:53;4.00;;;0.40;;
12302;SDS011;6214;48.012;7.862;2024-02-23T01:06:20;4.70;;;0.50;;
12302;SDS011;6214;48.012;7.862;2024-02-23T01:08:47;4.00;;;0.40;;
12302;SDS011;6214;48.012;7.862;2024-02-23T01:11:14;4.20;;;0.40;;
12302;SDS011;6214;48.012;7.862;2024-02-23T01:13:41;5.10;;;0.50;;
12302;SDS011;6214;48.012;7.862;2024-02-23T01:16:08;4.40;;;0.40;;
12302;SDS011;6214;48.012;7.862;2024-02-23T01:18:35;4.10;;;0.50;;
12302;SDS011;6214;48.012;7.862;2024-02-23T01:21:02;4.50;;;0.70;;
12302;SDS011;6214;48.012;7.862;2024-02-23T01:23:29;4.53;;;0.70;;
12302;SDS011;6214;48.012;7.862;2024-02-23T01:25:57;4.95;;;0.70;;
12302;SDS011;6214;48.012;7.862;2024-02-23T01:28:25;4.82;;;0.73;;
12302;SDS011;6214;48.012;7.862;2024-02-23T01:30:52;4.70;;;0.57;;
12302;SDS011;6214;48.012;7.862;2024-02-23T01:33:19;4.25;;;0.55;;
12302;SDS011;6214;48.012;7.862;2024-02-23T01:35:46;4.63;;;0.60;;
12302;SDS011;6214;48.012;7.862;2024-02-23T01:38:13;4.70;;;0.60;;
12302;SDS011;6214;48.012;7.862;2024-02-23T01:40:45;4.43;;;0.63;;
12302;SDS011;6214;48.012;7.862;2024-02-23T01:43:13;4.60;;;0.60;;
12302;SDS011;6214;48.012;7.862;2024-02-23T01:45:40;5.10;;;0.70;;
12302;SDS011;6214;48.012;7.862;2024-02-23T01:48:07;4.90;;;0.60;;
12302;SDS011;6214;48.012;7.862;2024-02-23T01:50:34;4.55;;;0.80;;
12302;SDS011;6214;48.012;7.862;2024-02-23T01:53:02;5.47;;;0.52;;
12302;SDS011;6214;48.012;7.862;2024-02-23T01:55:30;4.60;;;0.52;;
12302;SDS011;6214;48.012;7.862;2024-02-23T01:58:01;5.20;;;0.60;;
12302;SDS011;6214;48.012;7.862;2024-02-23T02:00:33;4.60;;;0.60;;
12302;SDS011;6214;48.012;7.862;2024-02-23T02:03:02;4.40;;;0.50;;
12302;SDS011;6214;48.012;7.862;2024-02-23T02:05:29;4.80;;;0.60;;
12302;SDS011;6214;48.012;7.862;2024-02-23T02:07:56;4.60;;;0.50;;
12302;SDS011;6214;48.012;7.862;2024-02-23T02:10:27;5.40;;;0.60;;
12302;SDS011;6214;48.012;7.862;2024-02-23T02:12:54;4.85;;;0.50;;
12302;SDS011;6214;48.012;7.862;2024-02-23T02:15:21;4.97;;;0.50;;
12302;SDS011;6214;48.012;7.862;2024-02-23T02:17:48;4.90;;;0.50;;
12302;SDS011;6214;48.012;7.862;2024-02-23T02:20:15;5.00;;;0.70;;
12302;SDS011;6214;48.012;7.862;2024-02-23T02:22:45;4.68;;;0.50;;
12302;SDS011;6214;48.012;7.862;2024-02-23T02:25:13;4.30;;;0.50;;
12302;SDS011;6214;48.012;7.862;2024-02-23T02:27:42;4.75;;;0.60;;
12302;SDS011;6214;48.012;7.862;2024-02-23T02:30:12;4.70;;;0.60;;
12302;SDS011;6214;48.012;7.862;2024-02-23T02:32:39;4.40;;;0.50;;
12302;SDS011;6214;48.012;7.862;2024-02-23T02:35:07;4.40;;;0.60;;
12302;SDS011;6214;48.012;7.862;2024-02-23T02:37:34;5.00;;;0.70;;
12302;SDS011;6214;48.012;7.862;2024-02-23T02:40:01;4.80;;;0.50;;
12302;SDS011;6214;48.012;7.862;2024-02-23T02:42:29;4.20;;;0.60;;
12302;SDS011;6214;48.012;7.862;2024-02-23T02:44:57;4.40;;;0.40;;
12302;SDS011;6214;48.012;7.862;2024-02-23T02:47:24;5.00;;;0.70;;
12302;SDS011;6214;48.012;7.862;2024-02-23T02:49:51;4.95;;;0.60;;
12302;SDS011;6214;48.012;7.862;2024-02-23T02:52:18;5.10;;;0.70;;
12302;SDS011;6214;48.012;7.862;2024-02-23T02:54:47;5.00;;;0.60;;
12302;SDS011;6214;48.012;7.862;2024-02-23T02:57:15;4.32;;;0.55;;
12302;SDS011;6214;48.012;7.862;2024-02-23T02:59:42;4.75;;;0.70;;
12302;SDS011;6214;48.012;7.862;2024-02-23T03:02:10;4.25;;;0.50;;
12302;SDS011;6214;48.012;7.862;2024-02-23T03:04:38;4.90;;;0.60;;
12302;SDS011;6214;48.012;7.862;2024-02-23T03:07:05;4.43;;;0.50;;
12302;SDS011;6214;48.012;7.862;2024-02-23T03:09:32;4.82;;;0.60;;
12302;SDS011;6214;48.012;7.862;2024-02-23T03:11:58;4.50;;;0.60;;
12302;SDS011;6214;48.012;7.862;2024-02-23T03:14:25;4.60;;;0.75;;
12302;SDS011;6214;48.012;7.862;2024-02-23T03:16:52;4.60;;;0.60;;
12302;SDS011;6214;48.012;7.862;2024-02-23T03:19:19;4.27;;;0.50;;
12302;SDS011;6214;48.012;7.862;2024-02-23T03:21:49;4.18;;;0.50;;
12302;SDS011;6214;48.012;7.862;2024-02-23T03:24:16;5.10;;;0.80;;
12302;SDS011;6214;48.012;7.862;2024-02-23T03:26:43;4.72;;;0.60;;
12302;SDS011;6214;48.012;7.862;2024-02-23T03:29:10;4.30;;;0.60;;
12302;SDS011;6214;48.012;7.862;2024-02-23T03:31:37;4.28;;;0.60;;
12302;SDS011;6214;48.012;7.862;2024-02-23T03:34:04;4.95;;;0.80;;
12302;SDS011;6214;48.012;7.862;2024-02-23T03:36:31;5.10;;;0.90;;
12302;SDS011;6214;48.012;7.862;2024-02-23T03:38:58;4.30;;;0.50;;
12302;SDS011;6214;48.012;7.862;2024-02-23T03:41:24;4.80;;;0.52;;
12302;SDS011;6214;48.012;7.862;2024-02-23T03:43:52;4.60;;;0.77;;
12302;SDS011;6214;48.012;7.862;2024-02-23T03:46:19;5.20;;;0.70;;
12302;SDS011;6214;48.012;7.862;2024-02-23T03:48:46;5.50;;;0.90;;
12302;SDS011;6214;48.012;7.862;2024-02-23T03:51:13;4.40;;;0.60;;
12302;SDS011;6214;48.012;7.862;2024-02-23T03:53:40;4.15;;;0.50;;
12302;SDS011;6214;48.012;7.862;2024-02-23T03:56:07;4.47;;;0.60;;
12302;SDS011;6214;48.012;7.862;2024-02-23T03:58:35;4.93;;;0.70;;
12302;SDS011;6214;48.012;7.862;2024-02-23T04:01:01;4.90;;;0.70;;
12302;SDS011;6214;48.012;7.862;2024-02-23T04:03:29;4.70;;;0.80;;
12302;SDS011;6214;48.012;7.862;2024-02-23T04:05:56;4.75;;;0.68;;
12302;SDS011;6214;48.012;7.862;2024-02-23T04:08:23;4.65;;;0.80;;
12302;SDS011;6214;48.012;7.862;2024-02-23T04:10:50;4.70;;;0.80;;
12302;SDS011;6214;48.012;7.862;2024-02-23T04:13:17;4.20;;;0.60;;
12302;SDS011;6214;48.012;7.862;2024-02-23T04:15:45;4.60;;;0.60;;
12302;SDS011;6214;48.012;7.862;2024-02-23T04:18:12;4.97;;;0.80;;
12302;SDS011;6214;48.012;7.862;2024-02-23T04:20:39;4.68;;;0.75;;
12302;SDS011;6214;48.012;7.862;2024-02-23T04:23:06;4.50;;;0.60;;
12302;SDS011;6214;48.012;7.862;2024-02-23T04:25:32;4.30;;;0.50;;
12302;SDS011;6214;48.012;7.862;2024-02-23T04:27:59;4.40;;;0.70;;
12302;SDS011;6214;48.012;7.862;2024-02-23T04:30:26;4.45;;;0.50;;
12302;SDS011;6214;48.012;7.862;2024-02-23T04:32:53;5.00;;;0.80;;
12302;SDS011;6214;48.012;7.862;2024-02-23T04:35:20;4.53;;;0.50;;
12302;SDS011;6214;48.012;7.862;2024-02-23T04:37:47;4.40;;;0.60;;
12302;SDS011;6214;48.012;7.862;2024-02-23T04:40:16;5.30;;;0.80;;
12302;SDS011;6214;48.012;7.862;2024-02-23T04:42:43;4.63;;;0.80;;
12302;SDS011;6214;48.012;7.862;2024-02-23T04:45:11;4.90;;;0.70;;
12302;SDS011;6214;48.012;7.862;2024-02-23T04:47:38;5.03;;;0.70;;
12302;SDS011;6214;48.012;7.862;2024-02-23T04:50:07;5.10;;;0.70;;
12302;SDS011;6214;48.012;7.862;2024-02-23T04:52:35;4.60;;;0.60;;
12302;SDS011;6214;48.012;7.862;2024-02-23T04:55:02;4.97;;;0.60;;
12302;SDS011;6214;48.012;7.862;2024-02-23T04:57:29;5.20;;;0.60;;
12302;SDS011;6214;48.012;7.862;2024-02-23T04:59:57;4.40;;;0.70;;
12302;SDS011;6214;48.012;7.862;2024-02-23T05:02:24;4.65;;;0.70;;
12302;SDS011;6214;48.012;7.862;2024-02-23T05:04:55;5.35;;;1.00;;
12302;SDS011;6214;48.012;7.862;2024-02-23T05:07:23;5.60;;;0.90;;
12302;SDS011;6214;48.012;7.862;2024-02-23T05:09:50;4.63;;;0.60;;
12302;SDS011;6214;48.012;7.862;2024-02-23T05:12:17;5.60;;;1.00;;
12302;SDS011;6214;48.012;7.862;2024-02-23T05:14:44;4.10;;;0.60;;
12302;SDS011;6214;48.012;7.862;2024-02-23T05:17:11;4.60;;;0.60;;
12302;SDS011;6214;48.012;7.862;2024-02-23T05:19:38;4.40;;;0.60;;
12302;SDS011;6214;48.012;7.862;2024-02-23T05:22:05;4.80;;;0.70;;
12302;SDS011;6214;48.012;7.862;2024-02-23T05:24:32;4.60;;;0.70;;
12302;SDS011;6214;48.012;7.862;2024-02-23T05:26:59;5.25;;;0.80;;
12302;SDS011;6214;48.012;7.862;2024-02-23T05:29:28;5.80;;;0.90;;
12302;SDS011;6214;48.012;7.862;2024-02-23T05:31:55;4.80;;;1.00;;
12302;SDS011;6214;48.012;7.862;2024-02-23T05:34:22;5.40;;;0.80;;
12302;SDS011;6214;48.012;7.862;2024-02-23T05:36:49;4.90;;;0.70;;
12302;SDS011;6214;48.012;7.862;2024-02-23T05:39:17;5.00;;;0.90;;
12302;SDS011;6214;48.012;7.862;2024-02-23T05:41:44;5.25;;;0.82;;
12302;SDS011;6214;48.012;7.862;2024-02-23T05:44:11;5.10;;;0.70;;
12302;SDS011;6214;48.012;7.862;2024-02-23T05:46:39;4.60;;;0.80;;
12302;SDS011;6214;48.012;7.862;2024-02-23T05:49:08;5.20;;;0.80;;
12302;SDS011;6214;48.012;7.862;2024-02-23T05:51:36;4.80;;;0.70;;
12302;SDS011;6214;48.012;7.862;2024-02-23T05:54:03;5.10;;;0.90;;
12302;SDS011;6214;48.012;7.862;2024-02-23T05:56:30;5.63;;;1.00;;
12302;SDS011;6214;48.012;7.862;2024-02-23T05:58:57;6.13;;;0.85;;
12302;SDS011;6214;48.012;7.862;2024-02-23T06:01:25;4.90;;;0.70;;
12302;SDS011;6214;48.012;7.862;2024-02-23T06:03:52;4.80;;;0.80;;
12302;SDS011;6214;48.012;7.862;2024-02-23T06:06:21;4.95;;;1.00;;
12302;SDS011;6214;48.012;7.862;2024-02-23T06:08:48;5.70;;;0.90;;
12302;SDS011;6214;48.012;7.862;2024-02-23T06:11:16;5.10;;;0.80;;
12302;SDS011;6214;48.012;7.862;2024-02-23T06:13:43;5.25;;;0.77;;
12302;SDS011;6214;48.012;7.862;2024-02-23T06:16:10;5.50;;;1.00;;
12302;SDS011;6214;48.012;7.862;2024-02-23T06:18:38;4.90;;;0.90;;
12302;SDS011;6214;48.012;7.862;2024-02-23T06:21:25;5.38;;;1.00;;
12302;SDS011;6214;48.012;7.862;2024-02-23T06:23:52;5.03;;;0.70;;
12302;SDS011;6214;48.012;7.862;2024-02-23T06:26:19;4.93;;;0.80;;
12302;SDS011;6214;48.012;7.862;2024-02-23T06:28:46;4.90;;;0.87;;
12302;SDS011;6214;48.012;7.862;2024-02-23T06:31:13;5.00;;;0.80;;
12302;SDS011;6214;48.012;7.862;2024-02-23T06:33:40;4.83;;;0.70;;
12302;SDS011;6214;48.012;7.862;2024-02-23T06:36:07;5.03;;;0.90;;
12302;SDS011;6214;48.012;7.862;2024-02-23T06:38:35;5.00;;;0.80;;
12302;SDS011;6214;48.012;7.862;2024-02-23T06:41:02;5.00;;;0.88;;
12302;SDS011;6214;48.012;7.862;2024-02-23T06:43:29;5.20;;;0.90;;
12302;SDS011;6214;48.012;7.862;2024-02-23T06:45:56;5.10;;;0.90;;
12302;SDS011;6214;48.012;7.862;2024-02-23T06:48:23;5.85;;;0.90;;
12302;SDS011;6214;48.012;7.862;2024-02-23T06:50:55;4.80;;;0.70;;
12302;SDS011;6214;48.012;7.862;2024-02-23T06:53:23;4.90;;;0.70;;
12302;SDS011;6214;48.012;7.862;2024-02-23T06:55:50;4.40;;;0.70;;
12302;SDS011;6214;48.012;7.862;2024-02-23T06:58:17;6.47;;;1.07;;
12302;SDS011;6214;48.012;7.862;2024-02-23T07:00:44;4.93;;;0.75;;
12302;SDS011;6214;48.012;7.862;2024-02-23T07:03:12;4.97;;;0.80;;
12302;SDS011;6214;48.012;7.862;2024-02-23T07:05:40;5.10;;;0.80;;
12302;SDS011;6214;48.012;7.862;2024-02-23T07:08:12;4.65;;;0.90;;
12302;SDS011;6214;48.012;7.862;2024-02-23T07:10:39;4.97;;;0.80;;
12302;SDS011;6214;48.012;7.862;2024-02-23T07:13:06;4.80;;;0.70;;
12302;SDS011;6214;48.012;7.862;2024-02-23T07:15:34;4.50;;;0.70;;
12302;SDS011;6214;48.012;7.862;2024-02-23T07:18:02;4.80;;;0.90;;
12302;SDS011;6214;48.012;7.862;2024-02-23T07:20:29;4.90;;;1.00;;
12302;SDS011;6214;48.012;7.862;2024-02-23T07:22:57;5.35;;;0.90;;
12302;SDS011;6214;48.012;7.862;2024-02-23T07:25:24;4.95;;;0.80;;
12302;SDS011;6214;48.012;7.862;2024-02-23T07:27:51;5.20;;;0.80;;
12302;SDS011;6214;48.012;7.862;2024-02-23T07:30:18;4.60;;;0.80;;
12302;SDS011;6214;48.012;7.862;2024-02-23T07:32:45;4.80;;;0.70;;
12302;SDS011;6214;48.012;7.862;2024-02-23T07:35:18;4.80;;;0.80;;
12302;SDS011;6214;48.012;7.862;2024-02-23T07:37:46;5.40;;;1.10;;
12302;SDS011;6214;48.012;7.862;2024-02-23T07:40:13;6.25;;;0.90;;
12302;SDS011;6214;48.012;7.862;2024-02-23T07:42:45;4.80;;;0.90;;
12302;SDS011;6214;48.012;7.862;2024-02-23T07:45:12;5.20;;;0.73;;
12302;SDS011;6214;48.012;7.862;2024-02-23T07:47:39;4.82;;;0.80;;
12302;SDS011;6214;48.012;7.862;2024-02-23T07:50:06;5.57;;;0.90;;
12302;SDS011;6214;48.012;7.862;2024-02-23T07:52:34;4.97;;;0.80;;
12302;SDS011;6214;48.012;7.862;2024-02-23T07:55:01;4.82;;;0.80;;
12302;SDS011;6214;48.012;7.862;2024-02-23T07:57:31;5.10;;;0.90;;
12302;SDS011;6214;48.012;7.862;2024-02-23T07:59:59;5.32;;;1.10;;
12302;SDS011;6214;48.012;7.862;2024-02-23T08:02:27;5.50;;;0.90;;
12302;SDS011;6214;48.012;7.862;2024-02-23T08:04:54;4.90;;;0.70;;
12302;SDS011;6214;48.012;7.862;2024-02-23T08:07:22;4.80;;;0.80;;
12302;SDS011;6214;48.012;7.862;2024-02-23T08:09:49;5.10;;;0.80;;
12302;SDS011;6214;48.012;7.862;2024-02-23T08:12:16;4.90;;;0.70;;
12302;SDS011;6214;48.012;7.862;2024-02-23T08:14:43;4.80;;;0.80;;
12302;SDS011;6214;48.012;7.862;2024-02-23T08:17:12;5.10;;;0.90;;
12302;SDS011;6214;48.012;7.862;2024-02-23T08:19:39;5.30;;;1.10;;
12302;SDS011;6214;48.012;7.862;2024-02-23T08:22:05;5.57;;;0.90;;
12302;SDS011;6214;48.012;7.862;2024-02-23T08:24:33;5.10;;;0.90;;
12302;SDS011;6214;48.012;7.862;2024-02-23T08:26:59;4.80;;;0.70;;
12302;SDS011;6214;48.012;7.862;2024-02-23T08:29:26;5.90;;;0.90;;
12302;SDS011;6214;48.012;7.862;2024-02-23T08:31:53;5.40;;;1.02;;
12302;SDS011;6214;48.012;7.862;2024-02-23T08:34:20;5.90;;;1.10;;
12302;SDS011;6214;48.012;7.862;2024-02-23T08:36:47;4.95;;;0.80;;
12302;SDS011;6214;48.012;7.862;2024-02-23T08:39:14;5.40;;;0.90;;
12302;SDS011;6214;48.012;7.862;2024-02-23T08:41:41;4.60;;;0.63;;
12302;SDS011;6214;48.012;7.862;2024-02-23T08:44:08;5.00;;;0.80;;
12302;SDS011;6214;48.012;7.862;2024-02-23T08:46:35;5.30;;;1.10;;
12302;SDS011;6214;48.012;7.862;2024-02-23T08:49:05;5.30;;;0.80;;
12302;SDS011;6214;48.012;7.862;2024-02-23T08:51:32;5.03;;;0.80;;
12302;SDS011;6214;48.012;7.862;2024-02-23T08:53:59;4.82;;;0.90;;
12302;SDS011;6214;48.012;7.862;2024-02-23T08:56:30;4.70;;;0.80;;
12302;SDS011;6214;48.012;7.862;2024-02-23T08:58:58;4.80;;;0.70;;
12302;SDS011;6214;48.012;7.862;2024-02-23T09:01:25;4.90;;;1.00;;
12302;SDS011;6214;48.012;7.862;2024-02-23T09:03:52;5.80;;;1.00;;
12302;SDS011;6214;48.012;7.862;2024-02-23T09:06:21;5.00;;;0.95;;
12302;SDS011;6214;48.012;7.862;2024-02-23T09:08:48;5.10;;;1.00;;
12302;SDS011;6214;48.012;7.862;2024-02-23T09:11:15;6.15;;;1.15;;
12302;SDS011;6214;48.012;7.862;2024-02-23T09:13:42;6.28;;;1.10;;
12302;SDS011;6214;48.012;7.862;2024-02-23T09:16:10;5.40;;;1.08;;
12302;SDS011;6214;48.012;7.862;2024-02-23T09:18:37;4.80;;;0.82;;
12302;SDS011;6214;48.012;7.862;2024-02-23T09:21:04;5.05;;;0.80;;
12302;SDS011;6214;48.012;7.862;2024-02-23T09:23:31;5.47;;;0.90;;
12302;SDS011;6214;48.012;7.862;2024-02-23T09:25:59;5.80;;;1.30;;
12302;SDS011;6214;48.012;7.862;2024-02-23T09:28:26;5.40;;;0.93;;
12302;SDS011;6214;48.012;7.862;2024-02-23T09:30:56;5.18;;;1.00;;
12302;SDS011;6214;48.012;7.862;2024-02-23T09:33:24;5.38;;;1.10;;
12302;SDS011;6214;48.012;7.862;2024-02-23T09:35:51;5.50;;;0.88;;
12302;SDS011;6214;48.012;7.862;2024-02-23T09:38:18;5.50;;;0.80;;
12302;SDS011;6214;48.012;7.862;2024-02-23T09:40:44;4.70;;;0.73;;
12302;SDS011;6214;48.012;7.862;2024-02-23T09:43:12;5.60;;;1.23;;
12302;SDS011;6214;48.012;7.862;2024-02-23T09:45:42;5.10;;;0.90;;
12302;SDS011;6214;48.012;7.862;2024-02-23T09:48:09;5.82;;;0.90;;
12302;SDS011;6214;48.012;7.862;2024-02-23T09:50:37;5.45;;;1.02;;
12302;SDS011;6214;48.012;7.862;2024-02-23T09:53:07;4.80;;;0.90;;
12302;SDS011;6214;48.012;7.862;2024-02-23T09:55:36;5.65;;;1.23;;
12302;SDS011;6214;48.012;7.862;2024-02-23T09:58:03;6.35;;;1.30;;
12302;SDS011;6214;48.012;7.862;2024-02-23T10:00:32;5.50;;;0.95;;
12302;SDS011;6214;48.012;7.862;2024-02-23T10:03:02;5.35;;;1.02;;
12302;SDS011;6214;48.012;7.862;2024-02-23T10:05:31;5.40;;;1.00;;
12302;SDS011;6214;48.012;7.862;2024-02-23T10:08:03;5.40;;;1.00;;
12302;SDS011;6214;48.012;7.862;2024-02-23T10:10:34;5.80;;;1.00;;
12302;SDS011;6214;48.012;7.862;2024-02-23T10:13:05;5.38;;;1.02;;
12302;SDS011;6214;48.012;7.862;2024-02-23T10:15:33;6.05;;;1.00;;
12302;SDS011;6214;48.012;7.862;2024-02-23T10:18:00;5.35;;;1.00;;
12302;SDS011;6214;48.012;7.862;2024-02-23T10:20:27;5.80;;;1.13;;
12302;SDS011;6214;48.012;7.862;2024-02-23T10:22:54;4.95;;;0.88;;
12302;SDS011;6214;48.012;7.862;2024-02-23T10:25:22;6.28;;;1.00;;
12302;SDS011;6214;48.012;7.862;2024-02-23T10:27:49;5.40;;;1.02;;
12302;SDS011;6214;48.012;7.862;2024-02-23T10:30:16;4.90;;;0.80;;
12302;SDS011;6214;48.012;7.862;2024-02-23T10:32:43;5.00;;;0.80;;
12302;SDS011;6214;48.012;7.862;2024-02-23T10:35:15;4.80;;;0.80;;
12302;SDS011;6214;48.012;7.862;2024-02-23T10:37:43;5.60;;;1.10;;
12302;SDS011;6214;48.012;7.862;2024-02-23T10:40:16;5.50;;;0.80;;
12302;SDS011;6214;48.012;7.862;2024-02-23T10:42:44;5.72;;;1.10;;
12302;SDS011;6214;48.012;7.862;2024-02-23T10:45:18;4.97;;;1.02;;
12302;SDS011;6214;48.012;7.862;2024-02-23T10:47:47;6.10;;;1.00;;
12302;SDS011;6214;48.012;7.862;2024-02-23T10:50:15;4.73;;;0.90;;
12302;SDS011;6214;48.012;7.862;2024-02-23T10:52:46;5.00;;;0.95;;
12302;SDS011;6214;48.012;7.862;2024-02-23T10:55:14;5.07;;;0.70;;
12302;SDS011;6214;48.012;7.862;2024-02-23T10:57:41;5.53;;;1.10;;
12302;SDS011;6214;48.012;7.862;2024-02-23T11:00:08;5.20;;;0.90;;
12302;SDS011;6214;48.012;7.862;2024-02-23T11:02:40;4.93;;;0.80;;
12302;SDS011;6214;48.012;7.862;2024-02-23T11:05:12;5.93;;;1.00;;
12302;SDS011;6214;48.012;7.862;2024-02-23T11:07:41;5.20;;;1.00;;
12302;SDS011;6214;48.012;7.862;2024-02-23T11:10:08;5.45;;;0.90;;
12302;SDS011;6214;48.012;7.862;2024-02-23T11:12:40;5.28;;;0.82;;
12302;SDS011;6214;48.012;7.862;2024-02-23T11:15:07;4.63;;;0.70;;
12302;SDS011;6214;48.012;7.862;2024-02-23T11:17:35;5.00;;;0.82;;
12302;SDS011;6214;48.012;7.862;2024-02-23T11:20:05;5.38;;;0.80;;
12302;SDS011;6214;48.012;7.862;2024-02-23T11:22:34;5.30;;;0.95;;
12302;SDS011;6214;48.012;7.862;2024-02-23T11:25:05;4.95;;;0.90;;
12302;SDS011;6214;48.012;7.862;2024-02-23T11:27:37;5.10;;;0.80;;
12302;SDS011;6214;48.012;7.862;2024-02-23T11:30:07;5.60;;;1.00;;
12302;SDS011;6214;48.012;7.862;2024-02-23T11:32:44;4.90;;;0.80;;
12302;SDS011;6214;48.012;7.862;2024-02-23T11:35:14;5.60;;;1.10;;
12302;SDS011;6214;48.012;7.862;2024-02-23T11:37:46;5.90;;;0.90;;
12302;SDS011;6214;48.012;7.862;2024-02-23T11:40:17;5.35;;;0.90;;
12302;SDS011;6214;48.012;7.862;2024-02-23T11:42:44;4.80;;;1.00;;
12302;SDS011;6214;48.012;7.862;2024-02-23T11:45:11;4.75;;;0.70;;
12302;SDS011;6214;48.012;7.862;2024-02-23T11:47:38;4.65;;;0.85;;
12302;SDS011;6214;48.012;7.862;2024-02-23T11:50:09;5.70;;;0.80;;
12302;SDS011;6214;48.012;7.862;2024-02-23T11:52:39;5.17;;;0.70;;
12302;SDS011;6214;48.012;7.862;2024-02-23T11:55:07;4.80;;;0.90;;
12302;SDS011;6214;48.012;7.862;2024-02-23T11:57:37;5.10;;;0.90;;
12302;SDS011;6214;48.012;7.862;2024-02-23T12:00:13;4.75;;;0.80;;
12302;SDS011;6214;48.012;7.862;2024-02-23T12:02:42;4.70;;;0.80;;
12302;SDS011;6214;48.012;7.862;2024-02-23T12:05:11;4.65;;;0.70;;
12302;SDS011;6214;48.012;7.862;2024-02-23T12:07:38;5.00;;;0.90;;
12302;SDS011;6214;48.012;7.862;2024-02-23T12:10:07;5.25;;;0.80;;
12302;SDS011;6214;48.012;7.862;2024-02-23T12:12:35;5.20;;;0.90;;
12302;SDS011;6214;48.012;7.862;2024-02-23T12:15:03;5.38;;;0.90;;
12302;SDS011;6214;48.012;7.862;2024-02-23T12:17:35;5.68;;;1.10;;
12302;SDS011;6214;48.012;7.862;2024-02-23T12:20:05;6.00;;;1.20;;
12302;SDS011;6214;48.012;7.862;2024-02-23T12:22:35;5.40;;;1.08;;
12302;SDS011;6214;48.012;7.862;2024-02-23T12:25:03;5.10;;;0.90;;
12302;SDS011;6214;48.012;7.862;2024-02-23T12:27:32;4.90;;;0.90;;
12302;SDS011;6214;48.012;7.862;2024-02-23T12:29:59;4.75;;;0.85;;
12302;SDS011;6214;48.012;7.862;2024-02-23T12:32:26;5.90;;;0.90;;
12302;SDS011;6214;48.012;7.862;2024-02-23T12:34:53;5.10;;;0.80;;
12302;SDS011;6214;48.012;7.862;2024-02-23T12:37:20;5.45;;;0.90;;
12302;SDS011;6214;48.012;7.862;2024-02-23T12:39:49;4.70;;;0.70;;
12302;SDS011;6214;48.012;7.862;2024-02-23T12:42:17;5.70;;;0.90;;
12302;SDS011;6214;48.012;7.862;2024-02-23T12:44:44;4.60;;;0.70;;
12302;SDS011;6214;48.012;7.862;2024-02-23T12:47:11;5.00;;;0.70;;
12302;SDS011;6214;48.012;7.862;2024-02-23T12:49:39;5.80;;;0.75;;
12302;SDS011;6214;48.012;7.862;2024-02-23T12:52:10;5.10;;;0.70;;
12302;SDS011;6214;48.012;7.862;2024-02-23T12:54:38;5.05;;;0.80;;
12302;SDS011;6214;48.012;7.862;2024-02-23T12:57:05;5.50;;;0.80;;
12302;SDS011;6214;48.012;7.862;2024-02-23T12:59:32;5.13;;;0.90;;
12302;SDS011;6214;48.012;7.862;2024-02-23T13:01:59;4.70;;;0.70;;
12302;SDS011;6214;48.012;7.862;2024-02-23T13:04:26;4.60;;;0.70;;
12302;SDS011;6214;48.012;7.862;2024-02-23T13:06:53;5.00;;;0.80;;
12302;SDS011;6214;48.012;7.862;2024-02-23T13:09:21;4.70;;;0.90;;
12302;SDS011;6214;48.012;7.862;2024-02-23T13:11:48;5.30;;;1.10;;
12302;SDS011;6214;48.012;7.862;2024-02-23T13:14:15;4.50;;;0.70;;
12302;SDS011;6214;48.012;7.862;2024-02-23T13:16:42;4.50;;;0.70;;
12302;SDS011;6214;48.012;7.862;2024-02-23T13:19:09;4.57;;;0.60;;
12302;SDS011;6214;48.012;7.862;2024-02-23T13:21:36;5.40;;;0.80;;
12302;SDS011;6214;48.012;7.862;2024-02-23T13:24:04;6.07;;;1.53;;
12302;SDS011;6214;48.012;7.862;2024-02-23T13:26:32;4.70;;;0.63;;
12302;SDS011;6214;48.012;7.862;2024-02-23T13:28:59;5.20;;;0.80;;
12302;SDS011;6214;48.012;7.862;2024-02-23T13:31:26;4.88;;;0.80;;
12302;SDS011;6214;48.012;7.862;2024-02-23T13:33:53;4.70;;;0.70;;
12302;SDS011;6214;48.012;7.862;2024-02-23T13:36:20;4.80;;;0.80;;
12302;SDS011;6214;48.012;7.862;2024-02-23T13:38:47;4.50;;;0.63;;
12302;SDS011;6214;48.012;7.862;2024-02-23T13:41:14;4.50;;;0.60;;
12302;SDS011;6214;48.012;7.862;2024-02-23T13:43:41;5.35;;;0.75;;
12302;SDS011;6214;48.012;7.862;2024-02-23T13:46:08;5.18;;;0.90;;
12302;SDS011;6214;48.012;7.862;2024-02-23T13:48:36;4.60;;;0.80;;
12302;SDS011;6214;48.012;7.862;2024-02-23T13:51:03;4.30;;;0.50;;
12302;SDS011;6214;48.012;7.862;2024-02-23T13:53:31;4.88;;;0.70;;
12302;SDS011;6214;48.012;7.862;2024-02-23T13:55:59;4.90;;;0.80;;
12302;SDS011;6214;48.012;7.862;2024-02-23T13:58:29;5.05;;;0.70;;
12302;SDS011;6214;48.012;7.862;2024-02-23T14:00:56;5.00;;;0.73;;
12302;SDS011;6214;48.012;7.862;2024-02-23T14:03:23;4.87;;;0.77;;
12302;SDS011;6214;48.012;7.862;2024-02-23T14:05:50;4.50;;;0.70;;
12302;SDS011;6214;48.012;7.862;2024-02-23T14:08:18;5.50;;;0.90;;
12302;SDS011;6214;48.012;7.862;2024-02-23T14:10:45;4.93;;;0.60;;
12302;SDS011;6214;48.012;7.862;2024-02-23T14:13:12;4.55;;;0.70;;
12302;SDS011;6214;48.012;7.862;2024-02-23T14:15:39;4.70;;;0.70;;
12302;SDS011;6214;48.012;7.862;2024-02-23T14:18:06;4.50;;;0.70;;
12302;SDS011;6214;48.012;7.862;2024-02-23T14:20:33;4.38;;;0.70;;
12302;SDS011;6214;48.012;7.862;2024-02-23T14:23:00;4.63;;;0.60;;
12302;SDS011;6214;48.012;7.862;2024-02-23T14:25:27;4.50;;;0.70;;
12302;SDS011;6214;48.012;7.862;2024-02-23T14:27:54;4.70;;;0.70;;
12302;SDS011;6214;48.012;7.862;2024-02-23T14:30:22;4.57;;;0.65;;
12302;SDS011;6214;48.012;7.862;2024-02-23T14:32:49;4.65;;;0.60;;
12302;SDS011;6214;48.012;7.862;2024-02-23T14:35:16;4.40;;;0.60;;
12302;SDS011;6214;48.012;7.862;2024-02-23T14:37:43;4.40;;;0.70;;
12302;SDS011;6214;48.012;7.862;2024-02-23T14:40:11;4.75;;;0.60;;
12302;SDS011;6214;48.012;7.862;2024-02-23T14:42:38;4.70;;;0.70;;
12302;SDS011;6214;48.012;7.862;2024-02-23T14:45:07;4.80;;;0.70;;
12302;SDS011;6214;48.012;7.862;2024-02-23T14:47:34;5.00;;;0.73;;
12302;SDS011;6214;48.012;7.862;2024-02-23T14:50:11;4.20;;;0.50;;
12302;SDS011;6214;48.012;7.862;2024-02-23T14:52:38;4.10;;;0.50;;
12302;SDS011;6214;48.012;7.862;2024-02-23T14:55:06;4.30;;;0.60;;
12302;SDS011;6214;48.012;7.862;2024-02-23T14:57:33;4.30;;;0.60;;
12302;SDS011;6214;48.012;7.862;2024-02-23T15:00:00;4.30;;;0.60;;
12302;SDS011;6214;48.012;7.862;2024-02-23T15:02:27;4.50;;;0.60;;
12302;SDS011;6214;48.012;7.862;2024-02-23T15:04:54;4.10;;;0.50;;